Time;durP1;ratioP1;P1;durP2;ratioP2;P2;SDS_P1;SDS_P2;PMS_P1;PMS_P2;Temp;Humidity;BMP_temperature;BMP_pressure;BME280_temperature;BME280_humidity;BME280_pressure;Samples;Min_cycle;Max_cycle;Signal;HPM_P1;HPM_P2
2021/12/21 00:00:56;;;;;;;;;7.75;7.75;;;;;2.85;76.72;100269.34;5022821;28;11464;-72
2021/12/21 00:03:52;;;;;;;;;7.00;7.00;;;;;2.89;77.23;100267.63;5036133;28;11540;-72
2021/12/21 00:06:47;;;;;;;;;10.75;10.75;;;;;3.01;77.03;100270.78;5036041;28;12306;-73
2021/12/21 00:09:43;;;;;;;;;7.75;7.75;;;;;2.78;77.59;100270.50;5034376;28;11521;-72
2021/12/21 00:12:49;;;;;;;;;7.25;7.25;;;;;2.81;77.83;100274.53;5039686;28;11508;-72
2021/12/21 00:15:56;;;;;;;;;8.25;8.25;;;;;2.77;78.10;100271.59;5002635;28;11502;-72
2021/12/21 00:21:42;;;;;;;;;5.50;5.50;;;;;2.71;77.68;100277.41;5032862;28;11504;-72
2021/12/21 00:24:46;;;;;;;;;8.00;7.00;;;;;2.71;78.29;100277.41;5033815;28;12308;-72
2021/12/21 00:27:41;;;;;;;;;10.25;10.25;;;;;2.62;77.95;100281.84;5020973;28;11474;-72
2021/12/21 00:30:37;;;;;;;;;9.00;9.00;;;;;2.71;78.01;100283.66;5045807;28;11517;-72
2021/12/21 00:33:32;;;;;;;;;8.50;8.50;;;;;2.60;78.68;100276.66;5045174;28;12334;-72
2021/12/21 00:36:30;;;;;;;;;10.25;10.25;;;;;2.52;78.99;100282.75;5033849;28;11485;-72
2021/12/21 00:39:26;;;;;;;;;7.25;7.25;;;;;2.61;78.63;100281.03;5020246;28;11522;-72
2021/12/21 00:42:21;;;;;;;;;11.00;10.00;;;;;2.55;79.37;100281.38;5033918;28;12307;-72
2021/12/21 00:45:17;;;;;;;;;11.00;11.00;;;;;2.50;79.02;100283.03;5033722;28;11502;-73
2021/12/21 00:48:15;;;;;;;;;14.00;14.00;;;;;2.51;78.95;100279.19;5020524;28;12266;-73
2021/12/21 00:51:11;;;;;;;;;7.00;7.00;;;;;2.55;79.16;100278.66;5033984;28;11517;-73
2021/12/21 00:54:06;;;;;;;;;9.50;9.50;;;;;2.45;79.45;100279.53;5045085;28;11513;-72
2021/12/21 00:57:04;;;;;;;;;10.00;10.00;;;;;2.60;79.82;100293.03;5020348;28;11533;-73
2021/12/21 01:00:00;;;;;;;;;10.25;10.25;;;;;2.55;79.86;100295.03;5015338;28;11520;-73
2021/12/21 01:03:00;;;;;;;;;11.25;10.75;;;;;2.65;78.97;100293.00;5002623;28;11550;-73
2021/12/21 01:06:04;;;;;;;;;12.00;11.00;;;;;2.49;79.00;100292.34;5013523;28;11633;-73
2021/12/21 01:12:03;;;;;;;;;14.75;14.75;;;;;2.42;79.28;100283.66;5014990;28;11552;-73
2021/12/21 01:24:23;;;;;;;;;12.00;12.00;;;;;2.19;78.37;100289.84;5032856;28;11679;-73
2021/12/21 01:30:14;;;;;;;;;15.75;13.25;;;;;1.87;79.59;100287.63;5034305;28;11540;-72
2021/12/21 01:36:46;;;;;;;;;16.00;14.00;;;;;1.92;79.88;100296.63;5012225;28;11554;-72
2021/12/21 01:52:14;;;;;;;;;11.67;11.67;;;;;1.78;80.44;100287.41;5032613;28;11619;-72
2021/12/21 01:55:10;;;;;;;;;15.50;14.00;;;;;1.69;80.20;100305.47;5032870;28;11624;-72
2021/12/21 01:58:06;;;;;;;;;11.00;11.00;;;;;1.73;80.58;100298.34;5032423;28;11481;-72
2021/12/21 02:01:02;;;;;;;;;10.00;10.00;;;;;1.66;80.24;100295.94;5032654;28;11498;-72
2021/12/21 02:03:58;;;;;;;;;9.25;8.00;;;;;1.69;80.54;100302.75;5032029;28;11633;-72
2021/12/21 02:06:53;;;;;;;;;9.00;8.50;;;;;1.55;80.96;100293.56;5031944;28;11530;-72
2021/12/21 02:09:49;;;;;;;;;10.50;10.50;;;;;1.57;80.78;100300.34;5032550;28;11588;-72
2021/12/21 02:12:31;;;;;;;;;8.00;8.00;;;;;1.58;80.56;100296.53;5046595;28;11521;-72
2021/12/21 02:15:28;;;;;;;;;12.50;12.50;;;;;1.76;80.10;100305.13;5031807;28;11499;-72
2021/12/21 02:21:30;;;;;;;;;11.00;11.00;;;;;1.74;79.69;100304.63;5032157;28;11574;-74
2021/12/21 02:24:37;;;;;;;;;13.00;13.00;;;;;1.80;79.77;100312.50;5018846;28;11497;-72
2021/12/21 02:27:54;;;;;;;;;12.75;10.75;;;;;1.90;79.03;100312.41;5031794;28;12297;-72
2021/12/21 02:30:53;;;;;;;;;13.33;12.67;;;;;1.80;78.76;100311.69;5032114;28;11643;-72
2021/12/21 02:33:49;;;;;;;;;13.33;13.00;;;;;1.70;79.51;100306.28;5031722;28;11519;-72
2021/12/21 02:36:47;;;;;;;;;7.75;7.75;;;;;1.76;79.66;100313.31;5030972;28;11535;-72
2021/12/21 02:39:43;;;;;;;;;15.00;13.00;;;;;1.72;79.25;100306.81;5028825;28;11496;-72
2021/12/21 02:42:38;;;;;;;;;11.00;11.00;;;;;1.74;79.10;100308.16;5031426;28;11537;-73
2021/12/21 02:45:34;;;;;;;;;13.00;11.50;;;;;1.77;79.12;100310.34;5029752;28;11511;-73
2021/12/21 02:48:31;;;;;;;;;11.00;11.00;;;;;1.86;79.54;100314.09;5051778;28;11522;-73
2021/12/21 02:51:26;;;;;;;;;10.00;10.00;;;;;1.72;79.32;100321.25;5053428;28;11541;-73
2021/12/21 02:54:22;;;;;;;;;15.00;13.25;;;;;1.82;78.78;100323.09;5053095;28;11653;-73
2021/12/21 02:57:17;;;;;;;;;14.50;14.50;;;;;1.90;78.30;100319.78;5027817;28;11540;-73
2021/12/21 03:00:14;;;;;;;;;16.25;16.25;;;;;1.98;78.46;100326.56;5037322;28;11534;-73
2021/12/21 03:03:14;;;;;;;;;13.00;13.00;;;;;1.84;78.91;100324.47;5037063;28;11520;-73
2021/12/21 03:06:21;;;;;;;;;13.75;13.75;;;;;1.66;79.82;100325.09;5035557;28;11480;-73
2021/12/21 03:09:59;;;;;;;;;13.75;13.75;;;;;1.85;78.41;100334.28;5004272;28;11577;-73
2021/12/21 03:15:49;;;;;;;;;11.00;11.00;;;;;1.83;77.55;100328.28;5015637;28;11511;-73
2021/12/21 03:18:45;;;;;;;;;15.50;10.75;;;;;1.72;77.51;100324.00;5015544;28;12454;-73
2021/12/21 03:21:41;;;;;;;;;13.75;13.75;;;;;1.71;77.94;100324.28;5031183;28;11600;-73
2021/12/21 03:24:37;;;;;;;;;8.50;8.50;;;;;1.98;76.73;100326.56;5033926;28;12345;-73
2021/12/21 03:27:33;;;;;;;;;10.25;10.00;;;;;1.88;76.83;100320.06;5036113;28;11527;-73
2021/12/21 03:30:28;;;;;;;;;11.00;11.00;;;;;1.85;76.76;100323.38;5035417;28;11468;-73
2021/12/21 03:33:24;;;;;;;;;11.00;11.00;;;;;1.89;76.90;100320.88;5035222;28;11507;-73
2021/12/21 03:36:20;;;;;;;;;5.25;4.25;;;;;1.86;76.62;100335.91;5021074;28;11678;-73
2021/12/21 03:39:18;;;;;;;;;8.00;8.00;;;;;1.94;76.90;100337.22;5036761;28;11494;-73
2021/12/21 03:42:15;;;;;;;;;7.50;7.00;;;;;2.02;76.77;100335.81;5035972;28;12165;-73
2021/12/21 03:45:10;;;;;;;;;13.00;13.00;;;;;2.00;76.50;100343.47;5046115;28;11498;-73
2021/12/21 03:48:06;;;;;;;;;10.50;9.00;;;;;2.03;75.80;100340.97;5034407;28;11512;-73
2021/12/21 03:51:03;;;;;;;;;16.50;12.50;;;;;2.18;75.74;100351.78;5021809;28;11553;-73
2021/12/21 03:53:58;;;;;;;;;10.50;10.50;;;;;2.24;75.81;100344.41;5035983;28;11530;-72
2021/12/21 03:56:54;;;;;;;;;10.00;10.00;;;;;2.13;75.75;100354.53;5034553;28;11502;-72
2021/12/21 03:59:50;;;;;;;;;14.50;14.50;;;;;2.15;75.75;100354.28;5036481;28;11512;-73
2021/12/21 04:02:46;;;;;;;;;8.00;8.00;;;;;2.08;76.23;100359.25;5036045;28;11595;-73
2021/12/21 04:05:41;;;;;;;;;9.00;9.00;;;;;2.15;76.24;100360.56;5021262;28;11627;-73
2021/12/21 04:08:37;;;;;;;;;8.00;8.00;;;;;2.17;76.59;100352.09;5034355;28;11562;-73
2021/12/21 04:11:33;;;;;;;;;11.00;11.00;;;;;2.13;76.30;100356.47;5034510;28;11527;-73
2021/12/21 04:14:31;;;;;;;;;9.00;9.00;;;;;2.21;76.57;100359.41;5020984;28;12354;-73
2021/12/21 04:17:26;;;;;;;;;11.00;11.00;;;;;2.23;76.30;100361.88;5033859;28;11536;-74
2021/12/21 04:20:22;;;;;;;;;15.00;15.00;;;;;2.15;76.18;100367.94;5034548;28;11505;-72
2021/12/21 04:23:18;;;;;;;;;12.25;12.00;;;;;2.09;76.60;100367.13;5034293;28;11498;-72
2021/12/21 04:26:16;;;;;;;;;13.75;13.25;;;;;2.08;76.53;100368.25;5035858;28;11575;-73
2021/12/21 04:29:11;;;;;;;;;7.25;7.25;;;;;2.02;77.24;100377.53;5015889;28;12310;-73
2021/12/21 04:32:07;;;;;;;;;11.00;11.00;;;;;2.15;77.77;100370.66;5015712;28;11464;-73
2021/12/21 04:35:03;;;;;;;;;25.00;24.33;;;;;2.25;76.83;100372.50;5014062;28;11681;-74
2021/12/21 04:38:11;;;;;;;;;13.00;13.00;;;;;2.23;76.77;100378.25;5028787;28;11536;-75
2021/12/21 04:41:16;;;;;;;;;9.00;9.00;;;;;2.13;76.71;100376.38;5020981;28;11621;-76
2021/12/21 04:44:11;;;;;;;;;12.50;12.50;;;;;2.13;76.46;100381.03;5033755;28;11631;-76
2021/12/21 04:47:07;;;;;;;;;9.75;9.75;;;;;2.04;77.77;100385.44;5020363;28;11526;-76
2021/12/21 04:50:03;;;;;;;;;15.00;14.00;;;;;2.15;78.09;100387.03;5034000;28;11547;-77
2021/12/21 04:52:58;;;;;;;;;11.50;11.50;;;;;1.84;78.39;100384.47;5035156;28;12430;-76
2021/12/21 04:55:54;;;;;;;;;13.00;13.00;;;;;1.82;79.36;100391.28;5033338;28;11510;-75
2021/12/21 04:58:50;;;;;;;;;14.25;12.00;;;;;2.02;78.33;100384.91;5038426;28;11515;-75
2021/12/21 05:01:45;;;;;;;;;17.00;16.00;;;;;2.16;78.20;100389.47;5033308;28;11620;-76
2021/12/21 05:04:41;;;;;;;;;12.50;10.00;;;;;2.14;77.86;100383.47;5033254;28;11525;-76
2021/12/21 05:07:39;;;;;;;;;15.75;15.75;;;;;2.16;78.32;100384.00;5034333;28;11550;-75
2021/12/21 05:10:51;;;;;;;;;9.50;9.50;;;;;1.82;79.46;100388.53;5020837;28;12385;-76
2021/12/21 05:13:46;;;;;;;;;11.50;11.50;;;;;2.02;79.66;100384.91;5022448;28;11502;-75
2021/12/21 05:16:14;;;;;;;;;16.25;16.25;;;;;2.12;78.99;100387.56;5033712;28;11524;-74
2021/12/21 05:19:09;;;;;;;;;11.67;11.67;;;;;2.23;78.60;100394.63;5033729;28;11529;-76
2021/12/21 05:22:05;;;;;;;;;16.00;16.00;;;;;2.22;78.75;100402.00;5032398;28;11537;-76
2021/12/21 05:25:01;;;;;;;;;20.00;17.50;;;;;2.31;78.95;100410.38;5033411;28;11522;-76
2021/12/21 05:27:56;;;;;;;;;11.00;11.00;;;;;2.23;79.30;100411.00;5033183;28;11654;-76
2021/12/21 05:30:52;;;;;;;;;16.75;16.75;;;;;2.28;79.85;100410.94;5019437;28;11517;-76
2021/12/21 05:33:51;;;;;;;;;20.00;20.00;;;;;2.21;81.25;100413.16;5021156;28;11526;-76
2021/12/21 05:36:46;;;;;;;;;21.75;21.75;;;;;2.26;80.48;100418.59;5032919;28;11572;-76
2021/12/21 05:39:57;;;;;;;;;23.00;17.75;;;;;2.22;80.78;100428.44;5034262;28;11555;-77
2021/12/21 05:42:52;;;;;;;;;33.00;27.75;;;;;2.19;81.01;100431.72;5032939;28;11703;-76
2021/12/21 05:45:48;;;;;;;;;18.00;18.00;;;;;2.28;81.36;100443.69;5034645;28;11524;-76
2021/12/21 05:48:43;;;;;;;;;29.00;29.00;;;;;2.33;82.00;100453.75;5032766;28;11598;-77
2021/12/21 05:51:39;;;;;;;;;17.25;17.25;;;;;1.44;80.68;100469.09;5032652;28;11548;-76
2021/12/21 05:54:35;;;;;;;;;21.25;19.75;;;;;1.09;80.48;100478.94;5019450;28;11578;-75
2021/12/21 05:57:31;;;;;;;;;10.00;10.00;;;;;0.38;81.73;100490.53;5021031;28;11529;-75
2021/12/21 06:00:34;;;;;;;;;19.00;19.00;;;;;0.29;82.60;100492.16;5019561;28;11496;-74
2021/12/21 06:03:30;;;;;;;;;16.00;15.33;;;;;0.27;82.54;100495.16;5032170;28;8845;-75
2021/12/21 06:06:26;;;;;;;;;8.00;8.00;;;;;0.04;82.32;100500.22;5032826;28;9649;-74
2021/12/21 06:09:22;;;;;;;;;13.67;13.00;;;;;0.15;81.67;100516.31;5034381;28;9583;-74
2021/12/21 06:15:40;;;;;;;;;13.67;13.67;;;;;-0.06;81.89;100518.16;5032366;28;8842;-76
2021/12/21 06:27:45;;;;;;;;;5.33;5.33;;;;;-0.13;80.58;100543.94;5032066;28;11486;-75
2021/12/21 06:30:40;;;;;;;;;5.33;5.33;;;;;-0.19;79.96;100543.06;5032359;28;8839;-75
2021/12/21 06:33:36;;;;;;;;;3.00;3.00;;;;;-0.40;80.00;100533.16;5033356;28;8822;-75
2021/12/21 06:36:32;;;;;;;;;7.00;7.00;;;;;-0.51;80.13;100535.00;5017805;28;8850;-74
2021/12/21 06:39:28;;;;;;;;;10.00;10.00;;;;;-0.27;79.01;100546.28;5016429;28;8953;-75
2021/12/21 06:42:26;;;;;;;;;4.67;4.67;;;;;-0.31;78.49;100546.00;5034006;28;8849;-75
2021/12/21 06:51:52;;;;;;;;;6.33;6.33;;;;;-0.40;78.80;100558.44;5031913;28;8830;-74
2021/12/21 06:54:48;;;;;;;;;6.00;6.00;;;;;-0.42;78.94;100571.47;5031856;28;8874;-74
2021/12/21 06:57:43;;;;;;;;;10.00;10.00;;;;;-0.26;78.82;100566.13;5017448;28;8955;-74
2021/12/21 07:00:39;;;;;;;;;6.33;6.33;;;;;-0.46;79.36;100566.78;5031647;28;8850;-74
2021/12/21 07:03:35;;;;;;;;;9.00;9.00;;;;;-0.07;78.48;100579.03;5018742;28;9705;-74
2021/12/21 07:06:34;;;;;;;;;15.00;15.00;;;;;0.31;78.20;100574.34;5018660;28;8858;-74
2021/12/21 07:09:58;;;;;;;;;6.00;6.00;;;;;0.22;77.78;100593.03;5031677;28;8842;-75
2021/12/21 07:18:58;;;;;;;;;3.00;3.00;;;;;0.20;77.00;100597.94;5031861;28;8916;-76
2021/12/21 07:21:53;;;;;;;;;4.00;4.00;;;;;0.25;77.06;100599.88;5043311;28;8870;-76
2021/12/21 07:24:49;;;;;;;;;4.00;4.00;;;;;0.14;77.07;100612.59;5032796;28;8845;-76
2021/12/21 07:27:44;;;;;;;;;3.67;3.67;;;;;0.25;76.72;100610.75;5043165;28;8905;-76
2021/12/21 07:30:40;;;;;;;;;5.00;5.00;;;;;0.51;76.33;100609.78;5031354;28;11478;-76
2021/12/21 07:33:36;;;;;;;;;3.00;3.00;;;;;0.73;75.87;100617.75;5031018;28;11471;-76
2021/12/21 07:36:32;;;;;;;;;3.33;3.33;;;;;0.79;74.55;100624.03;5031732;28;8826;-75
2021/12/21 07:39:28;;;;;;;;;3.00;3.00;;;;;0.45;74.72;100626.34;5031009;28;11479;-75
2021/12/21 07:42:24;;;;;;;;;3.33;3.33;;;;;0.13;75.82;100634.59;5043012;28;11493;-75
2021/12/21 07:45:19;;;;;;;;;4.00;4.00;;;;;0.15;76.49;100638.69;5036445;28;11509;-75
2021/12/21 07:48:17;;;;;;;;;4.00;4.00;;;;;0.13;76.05;100643.59;5035442;28;8976;-75
2021/12/21 07:51:14;;;;;;;;;4.00;4.00;;;;;0.03;77.44;100646.25;5046685;28;8893;-75
2021/12/21 07:54:10;;;;;;;;;8.33;8.33;;;;;0.16;76.36;100655.84;5021874;28;8845;-75
2021/12/21 07:57:08;;;;;;;;;6.33;6.33;;;;;0.48;76.34;100653.03;5035215;28;8895;-75
2021/12/21 08:00:08;;;;;;;;;9.67;7.67;;;;;0.40;76.35;100661.72;5023247;28;8911;-75
2021/12/21 08:03:04;;;;;;;;;3.67;3.67;;;;;0.32;74.84;100656.78;5021895;28;8873;-75
2021/12/21 08:06:03;;;;;;;;;4.00;4.00;;;;;0.41;75.46;100660.63;5021727;28;8854;-75
2021/12/21 08:09:00;;;;;;;;;3.00;3.00;;;;;0.30;75.40;100656.19;5023574;28;11486;-74
2021/12/21 08:12:16;;;;;;;;;3.00;3.00;;;;;-0.08;76.19;100666.28;5034710;28;8892;-75
2021/12/21 08:15:12;;;;;;;;;5.33;3.67;;;;;0.06;75.80;100663.94;5021525;28;8841;-76
2021/12/21 08:18:08;;;;;;;;;3.33;3.33;;;;;0.43;76.01;100670.16;5021377;28;8830;-76
2021/12/21 08:21:04;;;;;;;;;4.00;4.00;;;;;0.40;75.74;100669.88;5034686;28;9547;-76
2021/12/21 08:24:00;;;;;;;;;7.67;7.67;;;;;0.64;74.90;100670.25;5035921;28;8850;-76
2021/12/21 08:26:58;;;;;;;;;7.00;7.00;;;;;0.62;75.47;100669.72;5034518;28;8841;-76
2021/12/21 08:29:54;;;;;;;;;12.33;12.33;;;;;0.57;74.94;100667.78;5022925;28;8830;-75
2021/12/21 08:32:50;;;;;;;;;12.67;10.00;;;;;0.58;75.56;100677.56;5035573;28;8834;-76
2021/12/21 08:35:46;;;;;;;;;12.33;12.33;;;;;0.77;75.10;100673.31;5034096;28;8842;-76
2021/12/21 08:38:43;;;;;;;;;15.00;13.00;;;;;0.81;74.94;100679.84;5034420;28;8822;-76
2021/12/21 08:41:43;;;;;;;;;16.00;16.00;;;;;0.90;74.90;100677.44;5034253;28;8850;-76
2021/12/21 08:44:41;;;;;;;;;14.33;14.33;;;;;0.97;74.43;100677.19;5035462;28;8838;-76
2021/12/21 08:47:37;;;;;;;;;18.33;16.00;;;;;0.85;74.63;100680.16;5033980;28;9563;-75
2021/12/21 08:50:34;;;;;;;;;25.67;25.67;;;;;0.96;74.75;100670.94;5034170;28;8842;-75
2021/12/21 08:53:30;;;;;;;;;9.33;8.33;;;;;0.86;74.16;100678.25;5033999;28;8882;-76
2021/12/21 08:56:25;;;;;;;;;40.33;38.33;;;;;1.08;74.73;100684.31;5019724;28;8857;-74
2021/12/21 08:59:21;;;;;;;;;37.67;36.67;;;;;1.22;73.32;100684.59;5045457;28;8940;-75
2021/12/21 09:02:16;;;;;;;;;41.67;40.00;;;;;1.19;72.79;100688.69;5021189;28;8865;-76
2021/12/21 09:05:18;;;;;;;;;57.00;48.00;;;;;1.18;72.48;100697.97;5035141;28;8976;-76
2021/12/21 09:08:14;;;;;;;;;72.00;58.00;;;;;1.49;72.70;100693.41;5033660;28;8830;-76
2021/12/21 09:11:10;;;;;;;;;59.00;49.33;;;;;1.53;71.59;100704.56;5035097;28;8956;-75
2021/12/21 09:14:06;;;;;;;;;47.33;45.67;;;;;1.43;70.60;100712.72;5045278;28;8837;-75
2021/12/21 09:17:02;;;;;;;;;44.33;42.67;;;;;1.77;70.66;100713.88;5020230;28;8861;-76
2021/12/21 09:19:59;;;;;;;;;37.00;34.00;;;;;2.16;70.85;100697.78;5020325;28;8850;-77
2021/12/21 09:22:56;;;;;;;;;15.50;15.50;;;;;2.17;69.09;100707.59;5033326;28;8854;-76
2021/12/21 09:25:51;;;;;;;;;22.67;22.33;;;;;1.92;69.45;100697.53;5019969;28;11592;-76
2021/12/21 09:28:47;;;;;;;;;15.75;14.75;;;;;2.12;69.49;100709.50;5033274;28;11524;-76
2021/12/21 09:31:43;;;;;;;;;10.00;8.00;;;;;1.78;69.01;100714.69;5033118;28;11624;-75
2021/12/21 09:34:39;;;;;;;;;11.00;11.00;;;;;1.78;69.13;100711.97;5032980;28;11594;-76
2021/12/21 09:37:36;;;;;;;;;15.75;15.75;;;;;1.92;68.86;100710.34;5021647;28;11653;-76
2021/12/21 09:40:39;;;;;;;;;11.67;11.67;;;;;1.97;68.99;100704.88;5034427;28;11516;-76
2021/12/21 09:43:34;;;;;;;;;17.33;17.33;;;;;1.72;69.52;100711.13;5032572;28;11601;-76
2021/12/21 09:46:30;;;;;;;;;10.00;10.00;;;;;1.51;70.51;100720.38;5032836;28;11492;-75
2021/12/21 09:49:26;;;;;;;;;0.00;0.00;;;;;1.46;69.79;100720.34;5033051;28;11534;-75
2021/12/21 09:52:29;;;;;;;;;19.00;16.00;;;;;1.50;69.23;100714.09;5032583;28;11466;-75
2021/12/21 09:55:25;;;;;;;;;20.00;20.00;;;;;1.64;70.83;100708.94;5032602;28;11525;-75
2021/12/21 09:58:21;;;;;;;;;10.00;10.00;;;;;1.61;70.25;100707.59;5033951;28;11542;-76
2021/12/21 10:01:20;;;;;;;;;4.00;4.00;;;;;1.60;70.01;100707.84;5020933;28;11511;-77
2021/12/21 10:04:17;;;;;;;;;13.25;13.25;;;;;1.58;70.74;100712.75;5032171;28;11503;-76
2021/12/21 10:07:14;;;;;;;;;22.00;18.00;;;;;1.80;70.85;100718.78;5019674;28;11497;-76
2021/12/21 10:10:13;;;;;;;;;15.50;14.00;;;;;1.78;70.46;100722.88;5044077;28;11539;-75
2021/12/21 10:13:15;;;;;;;;;16.00;16.00;;;;;1.72;71.59;100716.59;5032156;28;11544;-76
2021/12/21 10:16:11;;;;;;;;;19.33;18.33;;;;;1.50;73.61;100721.47;5031734;28;11631;-76
2021/12/21 10:19:07;;;;;;;;;25.33;24.00;;;;;1.29;72.24;100723.31;5033182;28;12256;-75
2021/12/21 10:22:13;;;;;;;;;26.33;26.00;;;;;1.39;72.53;100717.91;5032480;28;11514;-75
2021/12/21 10:25:08;;;;;;;;;28.67;28.00;;;;;1.43;72.23;100723.63;5031668;28;8849;-76
2021/12/21 10:28:04;;;;;;;;;23.33;23.33;;;;;1.30;71.53;100720.34;5018226;28;8923;-76
2021/12/21 10:30:31;;;;;;;;;34.67;33.33;;;;;1.22;71.70;100723.56;5033343;28;8908;-75
2021/12/21 10:33:28;;;;;;;;;35.33;32.67;;;;;1.31;72.45;100715.72;5032292;28;9599;-76
2021/12/21 10:36:26;;;;;;;;;34.67;33.33;;;;;1.46;71.77;100725.81;5025762;28;8854;-76
2021/12/21 10:39:30;;;;;;;;;34.00;25.33;;;;;1.55;71.90;100732.38;5032163;28;8850;-75
2021/12/21 10:42:26;;;;;;;;;28.33;27.67;;;;;1.56;71.00;100726.66;5033906;28;8842;-75
2021/12/21 10:45:08;;;;;;;;;21.33;21.33;;;;;1.33;71.59;100730.69;5032931;28;8853;-75
2021/12/21 10:48:07;;;;;;;;;16.67;16.67;;;;;1.10;71.06;100728.44;5033610;28;8877;-75
2021/12/21 10:51:08;;;;;;;;;17.33;17.33;;;;;1.06;71.09;100725.41;5032022;28;8838;-75
2021/12/21 10:54:03;;;;;;;;;13.00;13.00;;;;;0.96;70.68;100724.56;5018697;28;8889;-75
2021/12/21 10:57:06;;;;;;;;;15.33;15.33;;;;;0.86;71.13;100730.81;5031703;28;8858;-75
2021/12/21 11:00:16;;;;;;;;;20.00;20.00;;;;;1.08;69.92;100722.47;5020026;28;8874;-75
2021/12/21 11:03:16;;;;;;;;;12.00;12.00;;;;;0.88;68.25;100741.41;5018634;28;8850;-72
2021/12/21 11:06:18;;;;;;;;;20.00;19.67;;;;;0.67;68.65;100729.59;5033577;28;8857;-75
2021/12/21 11:09:14;;;;;;;;;32.33;27.67;;;;;0.77;67.67;100737.84;5031763;28;8872;-75
2021/12/21 11:12:11;;;;;;;;;38.33;37.00;;;;;0.94;68.15;100733.00;5006511;28;8872;-75
2021/12/21 11:15:09;;;;;;;;;33.67;27.67;;;;;1.22;68.97;100730.91;5020138;28;8846;-75
2021/12/21 11:18:13;;;;;;;;;18.00;18.00;;;;;1.19;68.33;100734.19;5032192;28;8849;-74
2021/12/21 11:21:09;;;;;;;;;21.33;21.33;;;;;1.33;67.46;100733.44;5035878;28;8846;-74
2021/12/21 11:24:08;;;;;;;;;19.67;18.33;;;;;1.28;66.44;100746.19;5035602;28;8862;-75
2021/12/21 11:27:04;;;;;;;;;12.00;12.00;;;;;1.02;65.57;100748.03;5022623;28;8884;-75
2021/12/21 11:30:04;;;;;;;;;11.33;11.33;;;;;1.13;65.98;100759.78;5022187;28;11638;-75
2021/12/21 11:33:09;;;;;;;;;12.00;12.00;;;;;1.18;65.52;100759.81;5035621;28;8848;-75
2021/12/21 11:39:20;;;;;;;;;15.67;12.00;;;;;0.96;65.95;100768.97;5037371;28;8982;-75
2021/12/21 11:42:47;;;;;;;;;16.33;15.00;;;;;1.14;65.74;100762.22;5035629;28;11675;-76
2021/12/21 11:45:52;;;;;;;;;7.00;6.00;;;;;1.03;65.91;100774.19;5022064;28;8893;-75
2021/12/21 11:49:11;;;;;;;;;6.00;6.00;;;;;0.87;66.27;100772.47;5036878;28;11474;-75
2021/12/21 11:52:10;;;;;;;;;4.67;4.00;;;;;0.92;64.99;100770.59;5035297;28;11609;-76
2021/12/21 11:55:08;;;;;;;;;6.67;6.67;;;;;0.81;66.10;100780.59;5035283;28;11503;-74
2021/12/21 11:58:18;;;;;;;;;6.00;6.00;;;;;0.56;66.17;100783.16;5021758;28;11581;-74
2021/12/21 12:01:23;;;;;;;;;7.00;7.00;;;;;0.59;66.22;100779.91;5021286;28;11568;-75
2021/12/21 12:04:20;;;;;;;;;6.00;6.00;;;;;0.71;66.59;100783.25;5025186;28;12282;-74
2021/12/21 12:07:18;;;;;;;;;9.00;9.00;;;;;0.46;67.52;100799.41;5029520;28;8949;-74
2021/12/21 12:10:15;;;;;;;;;9.00;9.00;;;;;0.50;67.45;100798.63;5021631;28;8892;-75
2021/12/21 12:13:13;;;;;;;;;9.67;9.67;;;;;0.59;67.94;100798.13;5034699;28;8852;-74
2021/12/21 12:16:17;;;;;;;;;12.00;12.00;;;;;0.69;67.23;100807.22;5022230;28;8879;-74
2021/12/21 12:19:16;;;;;;;;;12.00;12.00;;;;;0.49;68.26;100812.50;5035145;28;8866;-74
2021/12/21 12:22:15;;;;;;;;;6.67;5.67;;;;;0.09;65.92;100813.81;5024135;28;8835;-74
2021/12/21 12:25:22;;;;;;;;;6.00;6.00;;;;;0.08;64.06;100830.38;5037064;28;8932;-74
2021/12/21 12:28:05;;;;;;;;;4.00;4.00;;;;;-0.06;63.93;100825.38;5020657;28;8901;-74
2021/12/21 12:31:01;;;;;;;;;4.00;4.00;;;;;-0.18;62.90;100830.13;5033136;28;11539;-74
2021/12/21 12:33:56;;;;;;;;;3.33;3.33;;;;;-0.26;62.95;100838.75;5020220;28;8878;-74
2021/12/21 12:36:54;;;;;;;;;4.00;4.00;;;;;-0.20;63.44;100840.44;5045169;28;8858;-74
2021/12/21 12:39:55;;;;;;;;;3.00;3.00;;;;;-0.46;63.92;100842.06;5034791;28;9683;-72
2021/12/21 12:43:08;;;;;;;;;3.33;3.33;;;;;-0.42;65.37;100848.63;5033110;28;8849;-72
2021/12/21 12:46:07;;;;;;;;;16.67;7.67;;;;;-0.33;64.79;100849.81;5031628;28;8862;-72
2021/12/21 12:49:05;;;;;;;;;4.00;4.00;;;;;-0.49;64.92;100855.31;5019803;28;8919;-73
2021/12/21 12:52:11;;;;;;;;;9.33;9.33;;;;;-0.42;66.20;100856.78;5045654;28;8937;-73
2021/12/21 12:55:13;;;;;;;;;6.33;6.33;;;;;-0.41;64.76;100868.47;5033436;28;8842;-74
2021/12/21 12:58:24;;;;;;;;;6.33;6.33;;;;;-0.17;65.56;100869.00;5033140;28;9547;-75
2021/12/21 13:01:25;;;;;;;;;6.00;6.00;;;;;-0.28;65.85;100871.63;5044937;28;8857;-73
2021/12/21 13:04:30;;;;;;;;;5.33;5.33;;;;;-0.56;65.51;100872.63;5041408;28;8889;-72
2021/12/21 13:07:27;;;;;;;;;7.00;7.00;;;;;-0.53;65.82;100878.66;5020536;28;8842;-72
2021/12/21 13:10:23;;;;;;;;;12.67;12.67;;;;;-0.56;65.93;100880.78;5034489;28;8830;-73
2021/12/21 13:13:20;;;;;;;;;12.00;12.00;;;;;-0.55;65.92;100887.03;5034579;28;8837;-73
2021/12/21 13:16:19;;;;;;;;;7.00;7.00;;;;;-0.88;66.34;100896.09;5044419;28;8865;-73
2021/12/21 13:19:17;;;;;;;;;9.33;9.33;;;;;-0.62;66.54;100900.78;5033458;28;8834;-73
2021/12/21 13:22:12;;;;;;;;;4.00;4.00;;;;;-1.17;65.59;100909.78;5044136;28;8870;-72
2021/12/21 13:25:08;;;;;;;;;3.67;3.67;;;;;-1.23;64.86;100918.91;5024314;28;8846;-73
2021/12/21 13:28:22;;;;;;;;;5.33;5.33;;;;;-0.72;64.96;100911.53;5051626;28;8883;-73
2021/12/21 13:31:20;;;;;;;;;4.00;4.00;;;;;-1.23;64.52;100929.75;5035681;28;8843;-73
2021/12/21 13:34:18;;;;;;;;;13.67;13.00;;;;;-1.31;65.22;100926.66;5034239;28;8842;-73
2021/12/21 13:37:18;;;;;;;;;4.00;4.00;;;;;-1.43;64.41;100934.88;5033070;28;9772;-73
2021/12/21 13:40:16;;;;;;;;;6.33;6.33;;;;;-1.40;64.91;100939.78;5022574;28;8866;-74
2021/12/21 13:43:14;;;;;;;;;9.00;9.00;;;;;-1.44;64.26;100938.66;5052526;28;8847;-74
2021/12/21 13:46:09;;;;;;;;;6.00;6.00;;;;;-1.07;64.29;100940.88;5039711;28;8832;-73
2021/12/21 13:49:05;;;;;;;;;7.00;7.00;;;;;-1.29;63.54;100957.09;5039465;28;9565;-73
2021/12/21 13:52:01;;;;;;;;;10.00;7.00;;;;;-1.24;64.65;100943.59;5054082;28;8824;-74
2021/12/21 13:54:58;;;;;;;;;9.33;9.33;;;;;-1.44;64.63;100954.94;5039258;28;8966;-74
2021/12/21 13:57:56;;;;;;;;;6.33;4.00;;;;;-1.48;63.61;100951.06;5031160;28;8857;-73
2021/12/21 14:00:54;;;;;;;;;4.00;4.00;;;;;-1.48;63.62;100960.00;5031497;28;8846;-74
2021/12/21 14:03:56;;;;;;;;;6.33;6.33;;;;;-1.38;63.85;100961.25;5032489;28;8849;-74
2021/12/21 14:06:53;;;;;;;;;6.00;6.00;;;;;-1.44;63.04;100965.78;5032187;28;8826;-74
2021/12/21 14:09:49;;;;;;;;;6.00;6.00;;;;;-1.57;62.50;100964.19;5035022;28;8837;-73
2021/12/21 14:13:00;;;;;;;;;3.33;3.33;;;;;-1.53;62.45;100973.50;5032791;28;8830;-75
2021/12/21 14:15:45;;;;;;;;;7.67;4.33;;;;;-1.45;63.29;100964.97;5039828;28;8828;-74
2021/12/21 14:18:16;;;;;;;;;6.33;6.33;;;;;-1.82;62.81;100977.28;5033966;28;9183;-73
2021/12/21 14:21:00;;;;;;;;;9.67;9.00;;;;;-1.64;62.38;100973.53;5015043;28;8837;-72
2021/12/21 14:23:30;;;;;;;;;0.00;0.00;;;;;-1.52;63.06;100974.31;5048651;28;8901;-73
2021/12/21 14:26:12;;;;;;;;;5.67;5.67;;;;;-1.65;62.77;100982.75;5036849;28;9707;-73
2021/12/21 14:28:45;;;;;;;;;9.00;9.00;;;;;-1.60;61.10;100991.81;5032722;28;9625;-73
2021/12/21 14:31:48;;;;;;;;;9.33;9.33;;;;;-1.91;59.79;100993.13;5022981;28;8945;-73
2021/12/21 14:34:46;;;;;;;;;14.33;12.00;;;;;-1.88;60.38;100999.94;5033477;28;8885;-74
2021/12/21 14:37:42;;;;;;;;;16.33;14.67;;;;;-2.18;60.33;100998.25;5032375;28;8874;-74
2021/12/21 14:40:47;;;;;;;;;8.33;8.33;;;;;-2.19;61.10;100999.31;5031649;28;8842;-73
2021/12/21 14:43:27;;;;;;;;;14.33;12.33;;;;;-2.04;61.39;101001.50;5032620;28;8846;-74
2021/12/21 14:46:23;;;;;;;;;13.33;11.67;;;;;-1.95;62.17;101005.50;5029565;28;8853;-74
2021/12/21 14:49:35;;;;;;;;;4.00;4.00;;;;;-2.23;61.57;101011.66;5033511;28;9704;-75
2021/12/21 14:52:45;;;;;;;;;7.67;6.33;;;;;-1.89;61.80;101019.97;5028564;28;8872;-74
2021/12/21 14:55:41;;;;;;;;;3.67;3.67;;;;;-1.77;61.37;101026.16;5022791;28;8845;-73